Latest Weather Observations for Perth Airport

IDW60801

Issued at 2:33 pm WST Saturday 10 December 2022 (issued every 10 minutes, with the page automatically refreshed every 10 minutes)

About weather observations | Map of weather stations | Latest weather observations for WA | Other Formats
Station Details ID: 009021 Name: PERTH AIRPORT Lat: -31.93 Lon: 115.98 Height: 15.4 m
Data from the previous 72 hours. | See also: Recent months at Perth Airport
Date/Time
WST
Temp
°C
App
Temp
°C
Dew
Point
°C
Rel
Hum
%
Delta-T
°C
Wind Press
QNH
hPa
Press
MSL
hPa
Rain since
9am
mm
Dir  Spd
km/h
Gust
km/h
Spd
kts
Gust
kts
10/02:00pm 24.4 17.2 5.7 30 9.5 SW 33 44 18 24 1017.3 1017.2 0.0
10/01:30pm 24.3 17.5 7.0 33 9.0 SW 32 41 17 22 1017.2 1017.1 0.0
10/01:00pm 24.3 20.4 7.0 33 9.0 S 17 30 9 16 1017.4 1017.3 0.0
10/12:30pm 24.5 19.9 6.7 32 9.2 SSW 20 33 11 18 1017.5 1017.4 0.0
10/12:00pm 24.2 19.8 6.5 32 9.1 SW 19 30 10 16 1017.8 1017.7 0.0
10/11:30am 24.6 20.3 7.7 34 8.9 SSW 20 35 11 19 1018.2 1018.1 0.0
10/11:00am 23.3 18.7 6.6 34 8.6 S 20 32 11 17 1018.7 1018.6 0.0
10/10:30am 23.8 19.8 6.6 33 8.9 S 17 32 9 17 1018.7 1018.6 0.0
10/10:00am 22.0 17.4 6.7 37 7.8 SE 20 32 11 17 1018.7 1018.6 0.0
10/09:30am 21.7 16.4 6.8 38 7.6 SSE 24 32 13 17 1018.8 1018.7 0.0
10/09:00am 21.3 16.3 6.4 38 7.5 SE 22 32 12 17 1018.7 1018.6 0.0
10/08:30am 20.4 14.5 5.6 38 7.3 SSE 26 37 14 20 1018.7 1018.6 0.0
10/08:00am 20.1 15.7 6.5 41 6.8 SE 19 30 10 16 1018.6 1018.5 0.0
10/07:30am 18.8 14.8 6.6 45 6.1 SE 17 24 9 13 1018.5 1018.4 0.0
10/07:00am 17.9 14.7 8.5 54 4.8 SE 15 22 8 12 1018.3 1018.2 0.0
10/06:30am 16.7 14.0 9.1 61 3.9 S 13 17 7 9 1018.0 1017.9 0.0
10/06:00am 13.2 11.1 11.3 88 1.0 S 13 17 7 9 1017.7 1017.6 0.0
10/05:30am 11.0 8.8 9.4 90 0.8 S 11 13 6 7 1017.3 1017.2 0.0
10/05:00am 11.7 9.7 10.1 90 0.8 SSE 11 15 6 8 1017.1 1017.0 0.0
10/04:30am 12.2 10.4 10.8 91 0.7 S 11 13 6 7 1016.8 1016.7 0.0
10/04:00am 11.9 10.2 10.0 88 1.0 SSW 9 13 5 7 1016.6 1016.5 0.0
10/03:30am 13.3 12.4 11.2 87 1.1 SSW 7 11 4 6 1016.4 1016.3 0.0
10/03:00am 13.9 12.4 11.8 87 1.1 S 11 13 6 7 1016.1 1016.0 0.0
10/02:30am 14.3 12.1 12.0 86 1.2 S 15 17 8 9 1016.1 1016.0 0.0
10/02:00am 14.7 12.2 12.4 86 1.3 S 17 20 9 11 1016.0 1015.9 0.0
10/01:30am 15.1 12.7 12.6 85 1.4 SSW 17 24 9 13 1015.9 1015.8 0.0
10/01:00am 15.8 13.5 13.1 84 1.5 SSW 17 24 9 13 1015.8 1015.7 0.0
10/12:30am 16.2 14.4 13.3 83 1.6 S 15 19 8 10 1015.7 1015.6 0.0
10/12:00am 16.6 13.5 13.3 81 1.8 S 22 30 12 16 1015.9 1015.8 0.0
 
Date/Time
WST
Temp
°C
App
Temp
°C
Dew
Point
°C
Rel
Hum
%
Delta-T
°C
Wind Press
QNH
hPa
Press
MSL
hPa
Rain since
9am
mm
Dir  Spd
km/h
Gust
km/h
Spd
kts
Gust
kts
09/11:30pm 17.1 15.3 13.4 79 2.1 SSW 15 20 8 11 1015.7 1015.6 0.0
09/11:00pm 17.5 15.7 13.4 77 2.3 SSW 15 19 8 10 1015.7 1015.6 0.0
09/10:30pm 17.7 16.4 13.6 77 2.3 SSW 13 17 7 9 1015.6 1015.5 0.0
09/10:00pm 17.8 16.0 13.3 75 2.5 SSW 15 20 8 11 1015.6 1015.5 0.0
09/09:30pm 18.0 15.9 13.5 75 2.5 SW 17 26 9 14 1015.5 1015.4 0.0
09/09:00pm 18.4 15.3 13.3 72 2.9 SSW 22 28 12 15 1015.2 1015.1 0.0
09/08:30pm 18.7 16.4 12.9 69 3.3 SW 17 24 9 13 1014.8 1014.7 0.0
09/08:00pm 19.0 15.7 12.7 67 3.5 SW 22 30 12 16 1014.8 1014.7 0.0
09/07:30pm 19.2 15.3 12.2 64 3.9 SW 24 30 13 16 1014.7 1014.6 0.0
09/07:00pm 19.6 15.2 11.6 60 4.4 SW 26 35 14 19 1014.4 1014.3 0.0
09/06:30pm 20.3 15.3 11.0 55 5.1 SW 28 39 15 21 1014.1 1014.0 0.0
09/06:00pm 21.1 16.1 10.9 52 5.6 SW 28 35 15 19 1013.7 1013.6 0.0
09/05:30pm 22.0 17.2 10.2 47 6.4 SW 26 35 14 19 1013.2 1013.1 0.0
09/05:00pm 22.2 17.5 9.4 44 6.9 SW 24 35 13 19 1012.7 1012.6 0.0
09/04:30pm 22.8 18.0 8.9 41 7.4 SW 24 35 13 19 1012.7 1012.6 0.0
09/04:00pm 22.4 16.9 9.2 43 7.1 SW 28 41 15 22 1012.6 1012.5 0.0
09/03:30pm 22.5 17.0 9.3 43 7.1 W 28 41 15 22 1012.6 1012.5 0.0
09/03:00pm 22.4 17.3 9.2 43 7.1 W 26 35 14 19 1012.5 1012.4 0.0
09/02:30pm 23.0 17.5 7.5 37 8.1 WSW 26 37 14 20 1012.5 1012.4 0.0
09/02:00pm 22.7 18.1 8.0 39 7.7 W 22 30 12 16 1012.4 1012.3 0.0
09/01:30pm 22.9 18.0 8.6 40 7.6 W 24 33 13 18 1012.4 1012.3 0.0
09/01:00pm 22.6 17.9 9.4 43 7.1 W 24 35 13 19 1012.4 1012.3 0.0
09/12:30pm 22.3 17.6 9.1 43 7.1 WNW 24 37 13 20 1012.5 1012.4 0.0
09/12:00pm 22.5 18.2 9.3 43 7.1 WSW 22 39 12 21 1012.7 1012.6 0.0
09/11:30am 23.1 19.8 8.0 38 8.0 WSW 15 26 8 14 1012.8 1012.7 0.0
09/11:00am 22.8 19.3 8.9 41 7.4 WSW 17 24 9 13 1012.8 1012.7 0.0
09/10:30am 20.8 16.8 8.4 45 6.5 SW 19 28 10 15 1012.9 1012.8 0.0
09/10:00am 20.7 17.6 9.0 47 6.2 WSW 15 20 8 11 1012.9 1012.8 0.0
09/09:30am 21.2 18.3 9.8 48 6.1 SSW 15 19 8 10 1012.9 1012.8 0.0
09/09:00am 20.8 18.3 9.7 49 6.0 SSW 13 20 7 11 1013.1 1013.0 0.0
09/08:30am 19.9 16.5 9.2 50 5.7 S 17 28 9 15 1012.9 1012.8 0.0
09/08:00am 20.4 17.7 10.2 52 5.5 SSW 15 24 8 13 1012.9 1012.8 0.0
09/07:30am 18.6 16.0 10.7 60 4.3 SSW 15 19 8 10 1012.8 1012.7 0.0
09/07:00am 17.7 15.9 11.0 65 3.6 SSW 11 15 6 8 1012.7 1012.6 0.0
09/06:30am 17.1 15.1 11.4 69 3.1 S 13 17 7 9 1012.6 1012.5 0.0
09/06:00am 16.8 14.3 11.1 69 3.1 S 15 19 8 10 1012.3 1012.2 0.0
09/05:30am 16.9 14.0 11.0 68 3.2 SSW 17 22 9 12 1012.1 1012.0 0.0
09/05:00am 16.7 13.5 11.4 71 2.9 S 19 22 10 12 1011.8 1011.7 0.0
09/04:30am 16.5 13.1 11.4 72 2.8 S 20 26 11 14 1011.7 1011.6 0.0
09/04:00am 16.7 13.5 11.4 71 2.9 S 19 24 10 13 1011.4 1011.3 0.0
09/03:30am 17.0 14.4 12.1 73 2.7 S 17 22 9 12 1011.3 1011.2 0.0
09/03:00am 17.4 14.2 11.9 70 3.0 SSW 20 28 11 15 1011.3 1011.2 0.0
09/02:30am 17.7 14.5 11.9 69 3.2 SW 20 26 11 14 1011.3 1011.2 0.0
09/02:00am 17.2 14.6 11.9 71 2.9 SW 17 26 9 14 1011.3 1011.2 0.0
09/01:30am 17.6 14.4 11.9 69 3.1 SW 20 32 11 17 1011.3 1011.2 0.0
09/01:00am 18.0 14.6 12.5 70 3.1 SW 22 32 12 17 1011.3 1011.2 0.0
09/12:30am 17.9 15.1 12.6 71 3.0 SSW 19 24 10 13 1011.1 1011.0 0.0
09/12:00am 18.2 15.4 13.1 72 2.9 SSW 20 26 11 14 1011.4 1011.3 0.0
 
Date/Time
WST
Temp
°C
App
Temp
°C
Dew
Point
°C
Rel
Hum
%
Delta-T
°C
Wind Press
QNH
hPa
Press
MSL
hPa
Rain since
9am
mm
Dir  Spd
km/h
Gust
km/h
Spd
kts
Gust
kts
08/11:30pm 17.9 15.7 13.4 75 2.5 SW 17 20 9 11 1011.7 1011.6 0.0
08/11:00pm 17.9 15.4 13.4 75 2.5 SW 19 26 10 14 1011.8 1011.7 0.0
08/10:30pm 18.3 15.2 13.4 73 2.8 SW 22 32 12 17 1011.9 1011.8 0.0
08/10:00pm 18.6 15.3 13.9 74 2.7 SW 24 32 13 17 1012.0 1011.9 0.0
08/09:30pm 18.5 15.9 13.8 74 2.7 SW 20 28 11 15 1012.0 1011.9 0.0
08/09:00pm 18.6 16.2 13.7 73 2.8 SW 19 26 10 14 1011.6 1011.5 0.0
08/08:30pm 19.0 15.3 13.8 72 3.0 SW 26 33 14 18 1011.4 1011.3 0.0
08/08:00pm 19.5 16.0 13.4 68 3.5 SW 24 32 13 17 1011.2 1011.1 0.0
08/07:30pm 19.8 16.0 13.5 67 3.6 SW 26 35 14 19 1010.9 1010.8 0.0
08/07:00pm 20.3 16.9 13.7 66 3.8 SW 24 32 13 17 1010.4 1010.3 0.0
08/06:30pm 20.8 17.0 13.7 64 4.1 SW 26 35 14 19 1010.1 1010.0 0.0
08/06:00pm 21.0 17.8 13.2 61 4.5 SW 22 32 12 17 1009.6 1009.5 0.0
08/05:30pm 22.0 17.9 12.8 56 5.2 WSW 26 35 14 19 1009.4 1009.3 0.0
08/05:00pm 22.1 17.9 12.4 54 5.5 SW 26 35 14 19 1008.9 1008.8 0.0
08/04:30pm 23.2 19.2 13.1 53 5.8 WSW 26 35 14 19 1008.7 1008.6 0.0
08/04:00pm 23.5 20.1 13.7 54 5.7 SW 24 35 13 19 1008.8 1008.7 0.0
08/03:30pm 23.9 19.8 13.7 52 6.0 WSW 28 41 15 22 1008.8 1008.7 0.0
08/03:00pm 24.0 20.5 14.4 55 5.7 WSW 26 37 14 20 1008.7 1008.6 0.0
08/02:30pm 23.5 19.7 13.7 54 5.7 WSW 26 37 14 20 1008.4 1008.3 0.0
08/02:00pm 23.9 20.5 13.7 52 6.0 WSW 24 37 13 20 1008.4 1008.3 0.0
08/01:30pm 24.3 20.3 14.1 53 6.0 WSW 28 35 15 19 1008.4 1008.3 0.0
08/01:00pm 24.4 20.3 13.9 52 6.2 WSW 28 37 15 20 1008.4 1008.3 0.0
08/12:30pm 24.4 19.8 13.6 51 6.3 WSW 30 39 16 21 1008.2 1008.1 0.0
08/12:00pm 25.5 22.1 12.4 44 7.6 WSW 22 32 12 17 1007.9 1007.8 0.0
08/11:30am 25.7 23.2 14.2 49 6.8 WSW 20 26 11 14 1007.8 1007.7 0.0
08/11:00am 25.7 23.1 13.2 46 7.3 WSW 19 32 10 17 1007.9 1007.8 0.0
08/10:30am 25.4 22.5 12.3 44 7.5 SW 19 28 10 15 1007.9 1007.8 0.0
08/10:00am 25.1 22.3 11.3 42 7.8 W 17 26 9 14 1008.0 1007.9 0.0
08/09:30am 24.1 21.1 11.8 46 7.0 W 19 26 10 14 1007.9 1007.8 0.0
08/09:00am 24.2 21.4 11.5 45 7.2 W 17 26 9 14 1007.9 1007.8 0.0
08/08:30am 23.8 21.1 9.0 39 8.0 SW 13 19 7 10 1007.7 1007.6 0.0
08/08:00am 23.0 19.9 9.0 41 7.5 WNW 15 20 8 11 1007.6 1007.5 0.0
08/07:30am 22.3 19.6 8.8 42 7.2 WNW 13 20 7 11 1007.0 1006.9 0.0
08/07:00am 22.0 19.5 8.2 41 7.3 NNW 11 17 6 9 1006.6 1006.5 0.0
08/06:30am 20.7 18.3 8.7 46 6.3 W 11 17 6 9 1006.1 1006.0 0.0
08/06:00am 19.2 17.5 8.5 50 5.6 N 7 13 4 7 1005.1 1005.0 0.0
08/05:30am 18.8 14.8 8.2 50 5.5 ESE 19 32 10 17 1004.4 1004.3 0.0
08/05:00am 19.0 13.6 7.8 48 5.8 E 26 37 14 20 1003.7 1003.6 0.0
08/04:30am 19.6 12.8 7.7 46 6.1 E 33 52 18 28 1003.2 1003.1 0.0
08/04:21am 20.0 13.1 7.4 44 6.4 E 33 52 18 28 1003.2 1003.1 0.0
08/04:00am 20.4 14.9 7.4 43 6.7 ESE 26 32 14 17 1003.8 1003.7 0.0
08/03:30am 19.0 15.0 8.1 49 5.6 ESE 19 30 10 16 1004.2 1004.1 0.0
08/03:00am 18.3 15.6 8.8 54 5.0 ESE 13 19 7 10 1004.7 1004.6 0.0
08/02:30am 18.5 14.6 9.6 56 4.7 SSE 20 30 11 16 1004.7 1004.6 0.0
08/02:00am 19.7 15.2 8.7 49 5.8 S 22 30 12 16 1004.3 1004.2 0.0
08/01:30am 20.1 14.4 8.4 47 6.1 SSE 28 35 15 19 1004.2 1004.1 0.0
08/01:00am 20.3 13.9 8.6 47 6.2 S 32 44 17 24 1003.6 1003.5 0.0
08/12:30am 21.5 17.0 8.7 44 6.8 SSE 22 33 12 18 1003.0 1002.9 0.0
08/12:02am 22.2 15.7 8.3 41 7.3 SE 32 50 17 27 1002.8 1002.7 0.0
08/12:00am 22.2 15.7 8.3 41 7.4 SE 32 41 17 22 1002.9 1002.8 0.0
 
Date/Time
WST
Temp
°C
App
Temp
°C
Dew
Point
°C
Rel
Hum
%
Delta-T
°C
Wind Press
QNH
hPa
Press
MSL
hPa
Rain since
9am
mm
Dir  Spd
km/h
Gust
km/h
Spd
kts
Gust
kts
07/11:30pm 21.6 15.6 8.8 44 6.8 SSE 30 43 16 23 1003.4 1003.3 0.0
07/11:11pm 22.7 16.9 8.0 39 7.7 SSW 28 41 15 22 1004.2 1004.1 0.0
07/11:00pm 23.1 19.7 7.6 37 8.1 S 15 24 8 13 1004.5 1004.4 0.0
07/10:30pm 23.2 15.8 8.5 39 7.8 S 37 50 20 27 1004.0 1003.9 0.0
07/10:08pm 23.4 17.0 8.7 39 7.9 SSE 32 50 17 27 1004.1 1004.0 0.0
07/10:00pm 22.3 15.9 10.8 48 6.4 S 35 50 19 27 1004.1 1004.0 0.0
07/09:30pm 22.0 17.1 11.4 51 5.9 SSE 28 37 15 20 1004.2 1004.1 0.0
07/09:00pm 22.5 17.7 11.6 50 6.1 SSW 28 35 15 19 1005.0 1004.9 0.0
07/08:30pm 23.5 20.3 11.9 48 6.6 SSW 20 26 11 14 1004.3 1004.2 0.0
07/08:00pm 23.8 20.1 12.8 50 6.4 SSW 24 30 13 16 1004.3 1004.2 0.0
07/07:30pm 27.2 21.9 6.6 27 10.8 SSW 24 30 13 16 1004.6 1004.5 0.0
07/07:00pm 28.2 22.8 6.3 25 11.6 SSE 24 30 13 16 1004.8 1004.7 0.0
07/06:30pm 29.2 23.3 6.0 23 12.2 SSE 26 32 14 17 1004.6 1004.5 0.0
07/06:00pm 29.8 24.4 6.5 23 12.5 SSE 24 33 13 18 1005.0 1004.9 0.0
07/05:30pm 30.1 24.2 7.3 24 12.3 SSE 28 33 15 18 1005.1 1005.0 0.0
07/05:00pm 30.0 25.0 6.6 23 12.5 ESE 22 30 12 16 1005.7 1005.6 0.0
07/04:30pm 31.2 26.2 8.2 24 12.7 ESE 24 30 13 16 1005.9 1005.8 0.0
07/04:00pm 31.1 26.5 8.2 24 12.7 ESE 22 39 12 21 1006.3 1006.2 0.0
07/03:30pm 30.2 24.7 7.4 24 12.4 E 26 35 14 19 1006.7 1006.6 0.0
07/03:00pm 29.7 24.6 7.6 25 12.0 E 24 35 13 19 1007.2 1007.1 0.0

Other formats

Comma delimited format used in spreadsheet applications
http://www.bom.gov.au/fwo/IDW60801/IDW60801.94610.axf

JavaScript Object Notation format (JSON) in row-major order
http://www.bom.gov.au/fwo/IDW60801/IDW60801.94610.json

Data quality

Most of these data are generated automatically and are frequently updated. Quality checks on data are not normally performed. It is possible for incorrect values to appear. Refer to information at About Latest Weather Observations and please check the disclaimer before using these data.